»·PEaware :: BOX457 KSLC-KLAX

BOX457 :: KSLC-KLAX

FLIGHT INFORMATION

Flight Status: Arrived
Operator: Unknown
More flights by this operator :: More flights under this callsign
Pilot: Alan S. (10569)
Aircraft: Unknown
(B77F)
More flights by this aircraft type
Origin: KSLC Salt Lake City Intl
United States
Destination: KLAX Los Angeles Intl
United States
More flights between these airports :: More routes between these airports
Route: +EDETH4 BERYL BLD J107 HEC RIIVR3
File this flight plan on PilotEdge
Remarks: GERMAN CARGO twitch.tv / aerosimgaming
Altitude:
(Current/Filed)
36,000ft
Speed:
(Current/Filed)
480kts
Departed: 10-Feb-17 08:05 PM
Arrived: 10-Feb-17 10:06 PM
Distance/Time
Traveled:
512nm/2:00
Distance/Time
To Go:
Arrived

Flight Plot

Page will automatically refresh every two minutes.


Map Options




Map Legend


Flown Route
Filed Route
Departure Airport
Arrival Airport
Navaid (VOR, NDB)
Fix

Horizontal Profiles

Position Reports

Time Latitude Longitude Heading Altitude Ground
Speed
10-Feb-17 18:58 40.802278 -111.985553 359 4214ft 0kts
10-Feb-17 18:59 40.802278 -111.985553 359 4214ft 0kts
10-Feb-17 19:00 40.802278 -111.985553 359 4214ft 0kts
10-Feb-17 19:01 40.802278 -111.985553 359 4214ft 0kts
10-Feb-17 19:02 40.802278 -111.985553 359 4214ft 0kts
10-Feb-17 19:03 40.802278 -111.985553 359 4214ft 0kts
10-Feb-17 19:04 40.802278 -111.985553 359 4213ft 0kts
10-Feb-17 19:05 40.802278 -111.985553 359 4213ft 0kts
10-Feb-17 19:06 40.802278 -111.985553 359 4213ft 0kts
10-Feb-17 19:07 40.802278 -111.985553 359 4213ft 0kts
10-Feb-17 19:08 40.802278 -111.985553 359 4213ft 0kts
10-Feb-17 19:09 40.802278 -111.985553 359 4213ft 0kts
10-Feb-17 19:10 40.802278 -111.985553 359 4213ft 0kts
10-Feb-17 19:11 40.802278 -111.985553 359 4213ft 0kts
10-Feb-17 19:12 40.802278 -111.985553 359 4213ft 0kts
10-Feb-17 19:13 40.802278 -111.985553 359 4213ft 0kts
10-Feb-17 19:14 40.802278 -111.985553 359 4213ft 0kts
10-Feb-17 19:15 40.802278 -111.985553 359 4213ft 0kts
10-Feb-17 19:16 40.802278 -111.985553 359 4213ft 0kts
10-Feb-17 19:17 40.802278 -111.985553 359 4213ft 0kts
10-Feb-17 19:18 40.802278 -111.985553 359 4213ft 0kts
10-Feb-17 19:19 40.802276 -111.985567 0 4214ft 0kts
10-Feb-17 19:20 40.802276 -111.985567 0 4214ft 0kts
10-Feb-17 19:21 40.802276 -111.985567 0 4213ft 0kts
10-Feb-17 19:22 40.802276 -111.985567 0 4213ft 0kts
10-Feb-17 19:23 40.802276 -111.985567 0 4213ft 0kts
10-Feb-17 19:24 40.802276 -111.985567 0 4213ft 0kts
10-Feb-17 19:25 40.802276 -111.985567 0 4213ft 0kts
10-Feb-17 19:26 40.802276 -111.985567 0 4213ft 0kts
10-Feb-17 19:27 40.802276 -111.985567 0 4213ft 0kts
10-Feb-17 19:28 40.802276 -111.985567 0 4213ft 0kts
10-Feb-17 19:29 40.802276 -111.985567 0 4213ft 0kts
10-Feb-17 19:30 40.802276 -111.985567 0 4213ft 0kts
10-Feb-17 19:31 40.802276 -111.985567 0 4213ft 0kts
10-Feb-17 19:32 40.802276 -111.985567 0 4213ft 0kts
10-Feb-17 19:33 40.802276 -111.985567 0 4213ft 0kts
10-Feb-17 19:34 40.802276 -111.985567 0 4213ft 0kts
10-Feb-17 19:35 40.802276 -111.985567 0 4213ft 0kts
10-Feb-17 19:36 40.802276 -111.985567 0 4213ft 0kts
10-Feb-17 19:37 40.802276 -111.985567 0 4213ft 0kts
10-Feb-17 19:38 40.802276 -111.985567 0 4213ft 0kts
10-Feb-17 19:39 40.802276 -111.985567 0 4213ft 0kts
10-Feb-17 19:40 40.802276 -111.985567 0 4213ft 0kts
10-Feb-17 19:41 40.802276 -111.985567 0 4213ft 0kts
10-Feb-17 19:42 40.802276 -111.985567 0 4213ft 0kts
10-Feb-17 19:43 40.802276 -111.985567 0 4213ft 0kts
10-Feb-17 19:44 40.802276 -111.985567 0 4213ft 0kts
10-Feb-17 19:45 40.802276 -111.985567 0 4213ft 0kts
10-Feb-17 19:46 40.802276 -111.985567 0 4213ft 0kts
10-Feb-17 19:47 40.802249 -111.985567 359 4213ft 1kts
10-Feb-17 19:48 40.801622 -111.985793 71 4213ft 2kts
10-Feb-17 19:49 40.801593 -111.986006 84 4213ft 0kts
10-Feb-17 19:50 40.801593 -111.986006 84 4213ft 0kts
10-Feb-17 19:51 40.801593 -111.986006 84 4213ft 0kts
10-Feb-17 19:52 40.801593 -111.986006 84 4213ft 0kts
10-Feb-17 19:53 40.801593 -111.986006 84 4213ft 0kts
10-Feb-17 19:54 40.801593 -111.986006 84 4213ft 0kts
10-Feb-17 19:55 40.801593 -111.986006 84 4213ft 0kts
10-Feb-17 19:56 40.801786 -111.982964 81 4213ft 15kts
10-Feb-17 19:57 40.800475 -111.979011 95 4213ft 15kts
10-Feb-17 19:58 40.795947 -111.977762 174 4213ft 19kts
10-Feb-17 19:59 40.789716 -111.977063 175 4213ft 24kts
10-Feb-17 20:00 40.782628 -111.976213 175 4213ft 29kts
10-Feb-17 20:01 40.774776 -111.975032 139 4213ft 15kts
10-Feb-17 20:02 40.774600 -111.974757 120 4213ft 0kts
10-Feb-17 20:03 40.774596 -111.974747 120 4213ft 0kts
10-Feb-17 20:04 40.775806 -111.973290 355 4213ft 15kts
10-Feb-17 20:05 40.808163 -111.976903 354 5053ft 175kts
10-Feb-17 20:06 40.853445 -112.000275 294 6873ft 217kts
10-Feb-17 20:07 40.838692 -112.085406 250 9510ft 255kts
10-Feb-17 20:08 40.817273 -112.178961 256 9835ft 267kts
10-Feb-17 20:09 40.779493 -112.258588 205 10780ft 299kts
10-Feb-17 20:10 40.690136 -112.290451 195 12044ft 362kts
10-Feb-17 20:11 40.593889 -112.306984 194 15037ft 369kts
10-Feb-17 20:12 40.487854 -112.327847 196 16739ft 410kts
10-Feb-17 20:13 40.369619 -112.352674 195 18420ft 450kts
10-Feb-17 20:14 40.258115 -112.414330 216 21098ft 438kts
10-Feb-17 20:15 40.149853 -112.490592 217 23383ft 450kts
10-Feb-17 20:16 40.057309 -112.555765 217 25321ft 463kts
10-Feb-17 20:17 39.943509 -112.635604 217 27590ft 482kts
10-Feb-17 20:18 39.831706 -112.713734 217 29730ft 500kts
10-Feb-17 20:19 39.708449 -112.799516 215 32361ft 516kts
10-Feb-17 20:20 39.567899 -112.856157 201 34012ft 537kts
10-Feb-17 20:21 39.424885 -112.903326 201 34023ft 536kts
10-Feb-17 20:22 39.281062 -112.950479 201 34025ft 534kts
10-Feb-17 20:23 39.137557 -112.996952 201 34024ft 533kts
10-Feb-17 20:24 38.994250 -113.042702 201 34027ft 534kts
10-Feb-17 20:25 38.855909 -113.086665 201 34013ft 533kts
10-Feb-17 20:26 38.715676 -113.131032 201 34041ft 531kts
10-Feb-17 20:27 38.572937 -113.176045 201 34045ft 532kts
10-Feb-17 20:28 38.430166 -113.220732 202 34065ft 527kts
10-Feb-17 20:29 38.288848 -113.265079 201 34046ft 532kts
10-Feb-17 20:30 38.146620 -113.309345 201 34049ft 529kts
10-Feb-17 20:31 38.004124 -113.353526 201 34048ft 528kts
10-Feb-17 20:32 37.873222 -113.408337 219 34095ft 505kts
10-Feb-17 20:33 37.755994 -113.500697 221 34092ft 501kts
10-Feb-17 20:34 37.638485 -113.594008 221 34094ft 501kts
10-Feb-17 20:35 37.525558 -113.683408 220 34108ft 501kts
10-Feb-17 20:36 37.409033 -113.775289 221 34104ft 499kts
10-Feb-17 20:37 37.292995 -113.866225 221 34086ft 489kts
10-Feb-17 20:38 37.177510 -113.956904 221 34077ft 500kts
10-Feb-17 20:39 37.060897 -114.047848 221 34080ft 498kts
10-Feb-17 20:40 36.943900 -114.138771 221 34080ft 497kts
10-Feb-17 20:41 36.833005 -114.224642 221 34070ft 496kts
10-Feb-17 20:42 36.715999 -114.314928 221 34068ft 495kts
10-Feb-17 20:43 36.599289 -114.404658 221 34066ft 494kts
10-Feb-17 20:44 36.483929 -114.493044 221 33988ft 495kts
10-Feb-17 20:45 36.367131 -114.582189 221 33987ft 493kts
10-Feb-17 20:46 36.252754 -114.669020 221 33960ft 481kts
10-Feb-17 20:47 36.137664 -114.756439 220 34049ft 492kts
10-Feb-17 20:48 36.021372 -114.844419 222 34002ft 490kts
10-Feb-17 20:49 35.927846 -114.956460 236 34053ft 468kts
10-Feb-17 20:50 35.847077 -115.066163 236 34044ft 467kts
10-Feb-17 20:51 35.759950 -115.184274 236 34041ft 466kts
10-Feb-17 20:52 35.673412 -115.301176 236 34041ft 466kts
10-Feb-17 20:53 35.586227 -115.418551 236 34039ft 464kts
10-Feb-17 20:54 35.499453 -115.534967 237 34039ft 464kts
10-Feb-17 20:55 35.414405 -115.648626 237 34050ft 451kts
10-Feb-17 20:56 35.336460 -115.752560 236 34052ft 464kts
10-Feb-17 20:57 35.250307 -115.867011 236 34078ft 463kts
10-Feb-17 20:58 35.164328 -115.980848 236 34079ft 462kts
10-Feb-17 20:59 35.078030 -116.094721 236 34078ft 461kts
10-Feb-17 21:00 34.991605 -116.208388 236 34077ft 459kts
10-Feb-17 21:01 34.906809 -116.319627 236 34077ft 459kts
10-Feb-17 21:02 34.837834 -116.409443 237 34037ft 407kts
10-Feb-17 21:03 34.760404 -116.496933 230 34075ft 386kts
10-Feb-17 21:04 34.671040 -116.582064 228 33879ft 449kts
10-Feb-17 21:05 34.582661 -116.665110 228 31669ft 435kts
10-Feb-17 21:06 34.493462 -116.748601 228 29655ft 428kts
10-Feb-17 21:07 34.401518 -116.834678 228 27665ft 413kts
10-Feb-17 21:08 34.312793 -116.917452 228 25690ft 399kts
10-Feb-17 21:09 34.228595 -116.995697 228 23461ft 369kts
10-Feb-17 21:10 34.147905 -117.070663 227 20943ft 360kts
10-Feb-17 21:11 34.088235 -117.154127 248 18583ft 336kts
10-Feb-17 21:12 34.048119 -117.251987 261 16039ft 300kts
10-Feb-17 21:13 34.038922 -117.344540 259 13488ft 279kts
10-Feb-17 21:14 34.030589 -117.432231 255 12069ft 226kts
10-Feb-17 21:15 34.023043 -117.509807 257 12108ft 243kts
10-Feb-17 21:16 34.015159 -117.592908 257 12107ft 258kts
10-Feb-17 21:17 34.007518 -117.672512 258 12102ft 271kts
10-Feb-17 21:18 33.998813 -117.762956 257 12087ft 282kts
10-Feb-17 21:19 33.989656 -117.857241 257 12104ft 283kts
10-Feb-17 21:20 33.968925 -117.942777 234 12100ft 251kts
10-Feb-17 21:21 33.928174 -118.007742 231 12102ft 241kts
10-Feb-17 21:22 33.889423 -118.068963 231 12087ft 237kts
10-Feb-17 21:23 33.841543 -118.116036 206 11965ft 236kts
10-Feb-17 21:24 33.775949 -118.124778 178 11970ft 253kts
10-Feb-17 21:25 33.709708 -118.087741 150 11969ft 281kts
10-Feb-17 21:26 33.658312 -118.013455 140 11968ft 296kts
10-Feb-17 21:27 33.593694 -117.965421 176 11969ft 263kts
10-Feb-17 21:28 33.526060 -117.977059 212 11968ft 243kts
10-Feb-17 21:29 33.485494 -118.038781 248 11968ft 245kts
10-Feb-17 21:30 33.490575 -118.122006 284 11967ft 267kts
10-Feb-17 21:31 33.537245 -118.196297 301 11970ft 292kts
10-Feb-17 21:32 33.591233 -118.271837 301 11965ft 305kts
10-Feb-17 21:33 33.649545 -118.345309 313 11704ft 312kts
10-Feb-17 21:34 33.728291 -118.387857 343 10191ft 319kts
10-Feb-17 21:35 33.811690 -118.357782 44 8811ft 334kts
10-Feb-17 21:36 33.877849 -118.285306 41 7213ft 315kts
10-Feb-17 21:37 33.939058 -118.219598 41 5930ft 295kts
10-Feb-17 21:38 33.999003 -118.155349 41 4771ft 285kts
10-Feb-17 21:39 34.055880 -118.095510 41 4929ft 274kts
10-Feb-17 21:40 34.105561 -118.042389 46 4945ft 264kts
10-Feb-17 21:41 34.102852 -117.972455 149 5086ft 205kts
10-Feb-17 21:42 34.058633 -117.977872 228 4867ft 170kts
10-Feb-17 21:43 34.029621 -118.020563 230 5032ft 174kts
10-Feb-17 21:44 33.999336 -118.065051 228 4890ft 174kts
10-Feb-17 21:45 33.969178 -118.112043 231 4262ft 174kts
10-Feb-17 21:46 33.958709 -118.169811 257 3555ft 174kts
10-Feb-17 21:47 33.952750 -118.226687 259 2711ft 178kts
10-Feb-17 21:48 33.948003 -118.278901 263 2002ft 198kts
10-Feb-17 21:49 33.941421 -118.342793 262 811ft 182kts
10-Feb-17 21:50 33.931073 -118.406956 257 1478ft 211kts
10-Feb-17 21:51 33.916331 -118.478366 257 2048ft 228kts
10-Feb-17 21:52 33.902420 -118.552774 266 2070ft 231kts
10-Feb-17 21:53 33.938307 -118.605764 2 2198ft 232kts
10-Feb-17 21:54 33.982816 -118.553001 66 2224ft 238kts
10-Feb-17 21:55 33.996684 -118.473640 81 2056ft 254kts
10-Feb-17 21:56 34.008372 -118.390037 81 2045ft 252kts
10-Feb-17 21:57 34.021989 -118.308197 78 2146ft 245kts
10-Feb-17 21:58 34.034995 -118.228581 79 2588ft 238kts
10-Feb-17 21:59 34.046241 -118.151930 92 3951ft 222kts
10-Feb-17 22:00 34.005575 -118.108362 176 3664ft 225kts
10-Feb-17 22:01 33.944648 -118.105821 224 3741ft 212kts
10-Feb-17 22:02 33.952380 -118.174399 278 3539ft 218kts
10-Feb-17 22:03 33.950616 -118.245464 263 2313ft 224kts
10-Feb-17 22:04 33.944077 -118.317807 263 1285ft 203kts
10-Feb-17 22:05 33.937708 -118.379469 262 211ft 172kts
10-Feb-17 22:06 33.934425 -118.411223 262 120ft 18kts
10-Feb-17 22:07 33.933329 -118.410229 83 120ft 10kts
10-Feb-17 22:08 33.933638 -118.407007 83 120ft 8kts
10-Feb-17 22:09 33.933956 -118.404331 83 120ft 7kts
10-Feb-17 22:10 33.934139 -118.402112 82 120ft 8kts
10-Feb-17 22:11 33.934653 -118.398044 83 120ft 16kts
10-Feb-17 22:12 33.935233 -118.391562 82 120ft 21kts
10-Feb-17 22:13 33.935774 -118.385651 91 120ft 8kts
10-Feb-17 22:14 33.934556 -118.385198 221 120ft 1kts
10-Feb-17 22:15 33.934420 -118.385810 269 120ft 0kts

Navigation Log

Ident Type
Flight plan parsing failed, navigation log unavailable